Time;durP1;ratioP1;P1;durP2;ratioP2;P2;SDS_P1;SDS_P2;PMS_P1;PMS_P2;Temp;Humidity;BMP_temperature;BMP_pressure;BME280_temperature;BME280_humidity;BME280_pressure;Samples;Min_cycle;Max_cycle;Signal;HPM_P1;HPM_P2
2022/10/20 00:00:16;;;;;;;2.65;1.95;;;17.40;63.70;;;;;;5054399;28;20178;-74
2022/10/20 00:02:42;;;;;;;1.60;1.50;;;17.40;63.70;;;;;;5053707;28;20172;-74
2022/10/20 00:05:08;;;;;;;1.67;1.55;;;17.40;63.60;;;;;;5054111;28;20172;-75
2022/10/20 00:07:33;;;;;;;1.60;1.50;;;17.40;63.60;;;;;;5054331;28;20183;-75
2022/10/20 00:09:59;;;;;;;2.30;1.63;;;17.40;63.70;;;;;;5053196;28;20175;-74
2022/10/20 00:12:24;;;;;;;1.63;1.52;;;17.40;63.60;;;;;;5054037;28;20227;-74
2022/10/20 00:14:50;;;;;;;1.58;1.48;;;17.40;63.60;;;;;;5054262;28;20171;-75
2022/10/20 00:17:15;;;;;;;2.35;1.92;;;17.40;63.60;;;;;;5051836;28;20218;-74
2022/10/20 00:19:41;;;;;;;2.35;1.58;;;17.40;63.70;;;;;;5054013;28;20200;-74
2022/10/20 00:22:06;;;;;;;1.52;1.42;;;17.40;63.70;;;;;;5053601;28;20179;-75
2022/10/20 00:24:32;;;;;;;1.67;1.58;;;17.40;63.70;;;;;;5053515;28;20221;-74
2022/10/20 00:26:57;;;;;;;1.52;1.40;;;17.40;63.60;;;;;;5053873;28;20175;-75
2022/10/20 00:29:23;;;;;;;3.17;1.65;;;17.40;63.60;;;;;;5054077;28;20182;-74
2022/10/20 00:31:48;;;;;;;1.98;1.70;;;17.30;63.60;;;;;;5053174;28;20254;-74
2022/10/20 00:34:14;;;;;;;1.88;1.58;;;17.30;63.60;;;;;;5053526;28;20274;-74
2022/10/20 00:36:39;;;;;;;1.88;1.48;;;17.30;63.70;;;;;;5053629;28;20210;-74
2022/10/20 00:39:07;;;;;;;2.10;1.88;;;17.30;63.60;;;;;;5052649;28;20182;-75
2022/10/20 00:41:33;;;;;;;1.85;1.75;;;17.30;63.60;;;;;;5053332;28;20540;-74
2022/10/20 00:44:00;;;;;;;1.60;1.50;;;17.30;63.60;;;;;;5053404;28;20201;-74
2022/10/20 00:46:39;;;;;;;2.78;1.90;;;17.30;63.60;;;;;;5052922;28;20297;-73
2022/10/20 00:49:16;;;;;;;2.10;1.88;;;17.30;63.70;;;;;;5051813;28;20542;-74
2022/10/20 00:51:42;;;;;;;2.05;1.60;;;17.30;63.60;;;;;;5052455;28;20179;-73
2022/10/20 00:54:09;;;;;;;1.60;1.50;;;17.30;63.60;;;;;;5051406;28;20256;-74
2022/10/20 00:56:36;;;;;;;1.50;1.40;;;17.30;63.70;;;;;;5052180;28;20211;-73
2022/10/20 00:59:02;;;;;;;1.85;1.60;;;17.30;63.70;;;;;;5051215;28;20175;-74
2022/10/20 01:01:27;;;;;;;1.63;1.52;;;17.30;63.70;;;;;;5053282;28;20549;-74
2022/10/20 01:03:53;;;;;;;1.92;1.73;;;17.30;63.70;;;;;;5053069;28;20266;-74
2022/10/20 01:06:19;;;;;;;1.95;1.75;;;17.30;63.70;;;;;;5052125;28;20651;-74
2022/10/20 01:08:45;;;;;;;1.60;1.50;;;17.30;63.70;;;;;;5053365;28;20178;-74
2022/10/20 01:11:36;;;;;;;1.92;1.70;;;17.30;63.70;;;;;;5052807;28;20167;-73
2022/10/20 01:14:06;;;;;;;1.80;1.70;;;17.30;63.80;;;;;;5041789;28;20183;-74
2022/10/20 01:16:42;;;;;;;1.65;1.55;;;17.30;63.70;;;;;;5051339;28;20665;-74
2022/10/20 01:19:32;;;;;;;2.58;1.58;;;17.30;63.80;;;;;;5051637;28;20175;-75
2022/10/20 01:22:08;;;;;;;1.63;1.52;;;17.20;63.70;;;;;;5050894;28;20274;-74
2022/10/20 01:24:55;;;;;;;1.50;1.40;;;17.30;63.80;;;;;;5051582;28;20189;-74
2022/10/20 01:27:29;;;;;;;1.80;1.70;;;17.20;63.70;;;;;;5051897;28;21009;-74
2022/10/20 01:30:07;;;;;;;2.60;1.70;;;17.20;63.70;;;;;;5051664;28;20630;-73
2022/10/20 01:32:58;;;;;;;1.98;1.88;;;17.20;63.70;;;;;;5051657;28;20189;-73
2022/10/20 01:35:38;;;;;;;2.33;1.83;;;17.20;63.80;;;;;;5052083;28;20229;-74
2022/10/20 01:38:15;;;;;;;2.78;1.88;;;17.20;63.80;;;;;;5052367;28;20587;-74
2022/10/20 01:40:56;;;;;;;1.70;1.60;;;17.20;63.80;;;;;;5052927;28;20185;-73
2022/10/20 01:43:22;;;;;;;2.13;1.92;;;17.20;63.80;;;;;;5051856;28;20217;-74
2022/10/20 01:45:48;;;;;;;2.78;1.90;;;17.20;63.80;;;;;;5051493;28;20248;-73
2022/10/20 01:48:15;;;;;;;3.50;1.92;;;17.20;63.80;;;;;;5050528;28;20621;-73
2022/10/20 01:50:41;;;;;;;1.70;1.50;;;17.20;63.80;;;;;;5051592;28;20183;-74
2022/10/20 01:53:06;;;;;;;1.55;1.38;;;17.20;63.80;;;;;;5051294;28;20171;-74
2022/10/20 01:55:32;;;;;;;2.20;1.65;;;17.20;63.80;;;;;;5051765;28;20205;-73
2022/10/20 01:58:15;;;;;;;2.50;1.77;;;17.20;63.80;;;;;;5051013;28;20179;-73
2022/10/20 02:00:41;;;;;;;2.50;1.65;;;17.20;63.80;;;;;;5052754;28;20199;-73
2022/10/20 02:03:16;;;;;;;1.67;1.58;;;17.20;63.80;;;;;;5053768;28;20210;-75
2022/10/20 02:06:27;;;;;;;1.83;1.73;;;17.20;63.80;;;;;;5055592;28;20174;-74
2022/10/20 02:08:54;;;;;;;1.77;1.67;;;17.20;63.80;;;;;;5048188;28;20183;-74
2022/10/20 02:11:35;;;;;;;1.77;1.63;;;17.20;63.80;;;;;;5054341;28;20179;-73
2022/10/20 02:14:00;;;;;;;1.65;1.48;;;17.20;63.90;;;;;;5056332;28;20293;-74
2022/10/20 02:16:31;;;;;;;2.88;1.92;;;17.20;63.90;;;;;;5054572;28;20215;-74
2022/10/20 02:18:57;;;;;;;2.60;1.63;;;17.10;63.80;;;;;;5055067;28;20175;-74
2022/10/20 02:21:23;;;;;;;1.70;1.48;;;17.10;63.80;;;;;;5055360;28;20171;-74
2022/10/20 02:23:49;;;;;;;1.50;1.40;;;17.10;63.80;;;;;;5054516;28;20167;-74
2022/10/20 02:26:16;;;;;;;1.73;1.42;;;17.10;63.90;;;;;;5054871;28;20183;-73
2022/10/20 02:28:43;;;;;;;1.80;1.58;;;17.10;63.90;;;;;;5055116;28;20171;-74
2022/10/20 02:31:09;;;;;;;2.40;1.55;;;17.10;63.80;;;;;;5054012;28;20229;-74
2022/10/20 02:33:35;;;;;;;1.73;1.63;;;17.10;63.90;;;;;;5054893;28;20179;-74
2022/10/20 02:36:03;;;;;;;1.77;1.67;;;17.10;64.80;;;;;;5054734;28;20218;-74
2022/10/20 02:38:29;;;;;;;2.00;1.50;;;17.10;63.90;;;;;;5055408;28;20175;-74
2022/10/20 02:40:54;;;;;;;2.50;1.75;;;17.10;63.90;;;;;;5056117;28;20225;-75
2022/10/20 02:43:20;;;;;;;1.75;1.60;;;17.10;63.90;;;;;;5055728;28;20175;-74
2022/10/20 02:45:45;;;;;;;2.97;2.20;;;17.10;63.90;;;;;;5055089;28;20174;-73
2022/10/20 02:48:11;;;;;;;1.70;1.60;;;17.10;63.90;;;;;;5055394;28;20540;-74
2022/10/20 02:50:36;;;;;;;1.65;1.55;;;17.10;63.90;;;;;;5055681;28;20183;-73
2022/10/20 02:53:02;;;;;;;1.75;1.65;;;17.10;63.90;;;;;;5054972;28;20168;-73
2022/10/20 02:55:28;;;;;;;1.60;1.50;;;17.10;63.90;;;;;;5055761;28;20286;-73
2022/10/20 02:57:53;;;;;;;2.10;1.60;;;17.00;63.90;;;;;;5055644;28;20619;-74
2022/10/20 03:00:19;;;;;;;1.48;1.38;;;17.10;64.00;;;;;;5054674;28;20685;-74
2022/10/20 03:02:46;;;;;;;3.00;1.50;;;17.10;63.90;;;;;;5055457;28;20183;-73
2022/10/20 03:05:12;;;;;;;2.13;1.88;;;17.10;64.00;;;;;;5055220;28;20198;-75
2022/10/20 03:07:37;;;;;;;1.98;1.75;;;17.10;64.00;;;;;;5054952;28;20210;-74
2022/10/20 03:10:03;;;;;;;1.73;1.63;;;17.00;63.90;;;;;;5055247;28;20290;-74
2022/10/20 03:12:31;;;;;;;2.03;1.70;;;17.10;64.00;;;;;;5054965;28;20622;-74
2022/10/20 03:14:57;;;;;;;2.55;1.90;;;17.10;64.00;;;;;;5054991;28;20179;-74
2022/10/20 03:17:23;;;;;;;1.80;1.70;;;17.00;63.90;;;;;;5055020;28;20609;-74
2022/10/20 03:19:48;;;;;;;1.80;1.67;;;17.00;64.00;;;;;;5054486;28;20599;-74
2022/10/20 03:22:14;;;;;;;1.90;1.80;;;17.00;63.90;;;;;;5054901;28;20224;-74
2022/10/20 03:24:39;;;;;;;1.88;1.77;;;17.10;64.00;;;;;;5055615;28;20167;-74
2022/10/20 03:27:05;;;;;;;1.90;1.60;;;17.00;64.00;;;;;;5054027;28;20262;-74
2022/10/20 03:29:30;;;;;;;1.60;1.50;;;17.00;64.00;;;;;;5055029;28;20190;-73
2022/10/20 03:31:56;;;;;;;1.70;1.60;;;17.00;64.00;;;;;;5054913;28;20186;-73
2022/10/20 03:34:21;;;;;;;2.10;1.60;;;17.00;64.00;;;;;;5054281;28;20171;-73
2022/10/20 03:36:47;;;;;;;3.28;1.88;;;17.00;64.00;;;;;;5054998;28;20256;-74
2022/10/20 03:39:12;;;;;;;2.00;1.55;;;17.00;64.00;;;;;;5054700;28;20178;-75
2022/10/20 03:41:38;;;;;;;1.67;1.58;;;17.00;64.00;;;;;;5054259;28;20175;-73
2022/10/20 03:44:03;;;;;;;3.25;1.77;;;17.00;64.00;;;;;;5054466;28;20570;-74
2022/10/20 03:46:29;;;;;;;1.73;1.55;;;16.90;64.00;;;;;;5054720;28;20641;-73
2022/10/20 03:48:54;;;;;;;1.88;1.50;;;17.00;64.00;;;;;;5054100;28;20175;-74
2022/10/20 03:51:20;;;;;;;1.92;1.70;;;17.00;64.00;;;;;;5054614;28;20553;-74
2022/10/20 03:53:46;;;;;;;1.27;1.25;;;17.00;64.10;;;;;;5053521;28;20535;-74
2022/10/20 03:56:14;;;;;;;2.13;1.60;;;17.00;64.90;;;;;;5053379;28;20252;-74
2022/10/20 03:58:39;;;;;;;1.40;1.30;;;16.90;64.00;;;;;;5053317;28;20194;-74
2022/10/20 04:01:06;;;;;;;1.38;1.30;;;17.00;64.00;;;;;;5054029;28;20195;-74
2022/10/20 04:03:31;;;;;;;1.67;1.58;;;17.00;64.00;;;;;;5052476;28;20630;-74
2022/10/20 04:05:57;;;;;;;1.70;1.60;;;16.90;64.00;;;;;;5053082;28;20183;-73
2022/10/20 04:08:22;;;;;;;1.67;1.58;;;16.90;64.10;;;;;;5054445;28;20171;-73
2022/10/20 04:10:48;;;;;;;1.60;1.50;;;16.90;64.00;;;;;;5053562;28;20175;-73
2022/10/20 04:13:13;;;;;;;1.83;1.50;;;16.90;64.00;;;;;;5053624;28;20223;-74
2022/10/20 04:15:39;;;;;;;2.17;1.60;;;16.90;64.10;;;;;;5054052;28;20211;-74
2022/10/20 04:18:04;;;;;;;1.70;1.60;;;16.90;64.00;;;;;;5053388;28;20179;-74
2022/10/20 04:20:30;;;;;;;1.70;1.60;;;16.90;64.10;;;;;;5054148;28;20183;-74
2022/10/20 04:22:55;;;;;;;2.10;1.40;;;16.90;64.10;;;;;;5053533;28;20634;-74
2022/10/20 04:25:21;;;;;;;1.70;1.40;;;16.90;64.10;;;;;;5053462;28;20179;-73
2022/10/20 04:27:46;;;;;;;1.42;1.30;;;16.90;64.10;;;;;;5053896;28;20537;-73
2022/10/20 04:30:12;;;;;;;1.70;1.60;;;16.90;64.10;;;;;;5052957;28;20190;-73
2022/10/20 04:32:37;;;;;;;1.50;1.40;;;16.90;64.10;;;;;;5053766;28;20171;-73
2022/10/20 04:35:04;;;;;;;1.33;1.20;;;16.90;64.10;;;;;;5053558;28;20579;-73
2022/10/20 04:37:29;;;;;;;1.73;1.63;;;16.90;64.10;;;;;;5053039;28;20210;-74
2022/10/20 04:39:56;;;;;;;1.30;1.20;;;16.90;64.10;;;;;;5053699;28;20171;-74
2022/10/20 04:42:22;;;;;;;2.47;1.63;;;16.90;64.20;;;;;;5053446;28;20249;-74
2022/10/20 04:44:47;;;;;;;1.58;1.48;;;16.90;64.10;;;;;;5052795;28;20179;-74
2022/10/20 04:47:13;;;;;;;3.33;1.80;;;16.90;64.10;;;;;;5053191;28;20650;-73
2022/10/20 04:49:39;;;;;;;1.90;1.42;;;16.90;64.20;;;;;;5053709;28;20179;-73
2022/10/20 04:52:04;;;;;;;1.77;1.48;;;16.90;64.10;;;;;;5052591;28;20176;-73
2022/10/20 04:54:30;;;;;;;1.60;1.50;;;16.90;64.10;;;;;;5053349;28;20178;-73
2022/10/20 04:56:55;;;;;;;1.95;1.50;;;16.90;64.10;;;;;;5053276;28;20214;-74
2022/10/20 04:59:21;;;;;;;1.98;1.88;;;16.80;64.00;;;;;;5052295;28;20171;-73
2022/10/20 05:01:46;;;;;;;1.40;1.30;;;16.90;64.20;;;;;;5053531;28;20297;-74
2022/10/20 05:04:13;;;;;;;3.33;1.63;;;16.80;64.10;;;;;;5053002;28;20262;-73
2022/10/20 05:06:38;;;;;;;1.40;1.30;;;16.80;65.00;;;;;;5052509;28;20174;-74
2022/10/20 05:09:05;;;;;;;2.28;1.63;;;16.80;64.10;;;;;;5052963;28;20171;-73
2022/10/20 05:11:32;;;;;;;1.55;1.45;;;16.80;64.10;;;;;;5052900;28;20226;-73
2022/10/20 05:13:58;;;;;;;1.70;1.60;;;16.80;64.10;;;;;;5051975;28;20649;-73
2022/10/20 05:16:23;;;;;;;2.55;1.60;;;16.80;64.10;;;;;;5053043;28;20214;-74
2022/10/20 05:18:51;;;;;;;2.03;1.52;;;16.80;64.10;;;;;;5053128;28;20215;-73
2022/10/20 05:21:18;;;;;;;1.50;1.38;;;16.80;64.20;;;;;;5051942;28;20232;-73
2022/10/20 05:23:44;;;;;;;1.42;1.33;;;16.80;64.20;;;;;;5053044;28;20194;-74
2022/10/20 05:26:14;;;;;;;1.52;1.42;;;16.80;64.20;;;;;;5051979;28;20262;-73
2022/10/20 05:28:42;;;;;;;1.50;1.40;;;16.80;64.20;;;;;;5052808;28;20175;-73
2022/10/20 05:31:08;;;;;;;2.33;1.52;;;16.80;64.20;;;;;;5052461;28;20622;-73
2022/10/20 05:33:34;;;;;;;2.03;1.60;;;16.80;64.20;;;;;;5052271;28;20191;-73
2022/10/20 05:35:59;;;;;;;3.55;1.75;;;16.80;64.20;;;;;;5052021;28;20654;-73
2022/10/20 05:38:25;;;;;;;1.58;1.48;;;16.80;64.20;;;;;;5052775;28;20194;-74
2022/10/20 05:40:50;;;;;;;2.15;1.67;;;16.80;64.20;;;;;;5052020;28;20202;-74
2022/10/20 05:43:16;;;;;;;2.70;2.10;;;16.80;64.20;;;;;;5052234;28;20512;-74
2022/10/20 05:45:41;;;;;;;2.67;1.60;;;16.80;64.20;;;;;;5052930;28;20171;-73
2022/10/20 05:48:07;;;;;;;2.20;1.58;;;16.80;64.30;;;;;;5051877;28;20257;-73
2022/10/20 05:50:32;;;;;;;2.58;1.70;;;16.80;64.20;;;;;;5052645;28;20178;-73
2022/10/20 05:52:58;;;;;;;2.10;2.00;;;16.80;64.20;;;;;;5052330;28;20197;-73
2022/10/20 05:55:23;;;;;;;3.25;1.48;;;16.80;64.40;;;;;;5050812;28;20226;-73
2022/10/20 05:57:49;;;;;;;1.63;1.52;;;16.80;64.20;;;;;;5052771;28;20171;-73
2022/10/20 06:00:15;;;;;;;2.55;1.73;;;16.70;64.20;;;;;;5052280;28;20198;-73
2022/10/20 06:02:41;;;;;;;1.70;1.60;;;16.80;64.20;;;;;;5051956;28;20202;-73
2022/10/20 06:05:06;;;;;;;1.30;1.20;;;16.80;64.30;;;;;;5052308;28;20634;-72
2022/10/20 06:07:32;;;;;;;1.60;1.50;;;16.80;64.30;;;;;;5052450;28;20673;-73
2022/10/20 06:09:57;;;;;;;1.70;1.60;;;16.80;65.20;;;;;;5051366;28;20736;-73
2022/10/20 06:12:23;;;;;;;2.03;1.50;;;16.70;64.20;;;;;;5052112;28;20346;-73
2022/10/20 06:14:48;;;;;;;1.80;1.70;;;16.70;64.30;;;;;;5052631;28;20182;-74
2022/10/20 06:17:14;;;;;;;1.70;1.60;;;16.70;64.30;;;;;;5051385;28;20207;-73
2022/10/20 06:19:39;;;;;;;2.00;1.70;;;16.70;64.30;;;;;;5052549;28;20174;-73
2022/10/20 06:22:05;;;;;;;1.50;1.40;;;16.80;64.30;;;;;;5052168;28;20566;-73
2022/10/20 06:24:30;;;;;;;1.98;1.80;;;16.70;64.30;;;;;;5051597;28;20642;-73
2022/10/20 06:26:56;;;;;;;3.30;1.33;;;16.70;64.30;;;;;;5052250;28;20181;-73
2022/10/20 06:29:21;;;;;;;1.88;1.77;;;16.70;64.30;;;;;;5052189;28;20634;-73
2022/10/20 06:31:49;;;;;;;1.58;1.38;;;16.70;64.30;;;;;;5051751;28;20175;-73
2022/10/20 06:34:16;;;;;;;1.77;1.50;;;16.70;64.30;;;;;;5052169;28;20202;-73
2022/10/20 06:36:42;;;;;;;1.60;1.50;;;16.70;64.30;;;;;;5051535;28;20289;-74
2022/10/20 06:39:09;;;;;;;1.70;1.60;;;16.80;64.20;;;;;;5051942;28;20213;-73
2022/10/20 06:41:34;;;;;;;1.90;1.77;;;16.80;64.20;;;;;;5050676;28;20191;-74
2022/10/20 06:44:00;;;;;;;2.20;1.60;;;16.90;64.20;;;;;;5051348;28;20174;-70
2022/10/20 06:46:27;;;;;;;2.78;1.50;;;17.00;64.30;;;;;;5052031;28;20651;-70
2022/10/20 06:48:52;;;;;;;2.72;1.52;;;17.10;64.10;;;;;;5054953;28;20179;-72
2022/10/20 06:51:18;;;;;;;3.22;1.50;;;17.20;63.90;;;;;;5054860;28;20171;-73
2022/10/20 06:53:44;;;;;;;2.20;1.75;;;17.30;63.90;;;;;;5055721;28;20690;-72
2022/10/20 06:56:11;;;;;;;1.92;1.63;;;17.40;63.60;;;;;;5055263;28;20218;-70
2022/10/20 06:58:36;;;;;;;2.05;1.67;;;17.50;63.50;;;;;;5054040;28;20182;-70
2022/10/20 07:01:06;;;;;;;2.45;1.58;;;17.60;63.30;;;;;;5055509;28;20258;-70
2022/10/20 07:03:33;;;;;;;1.98;1.77;;;17.70;63.10;;;;;;5055674;28;20175;-69
2022/10/20 07:05:58;;;;;;;3.55;1.80;;;17.70;62.90;;;;;;5054564;28;20179;-69
2022/10/20 07:08:26;;;;;;;5.25;1.90;;;17.70;62.90;;;;;;5055453;28;20240;-68
2022/10/20 07:11:02;;;;;;;3.13;1.80;;;17.70;62.90;;;;;;5055404;28;20274;-68
2022/10/20 07:13:28;;;;;;;2.45;1.73;;;17.70;63.00;;;;;;5054551;28;20305;-68
2022/10/20 07:15:54;;;;;;;2.70;1.70;;;17.70;63.30;;;;;;5055419;28;20672;-70
2022/10/20 07:18:20;;;;;;;2.33;1.88;;;17.80;63.40;;;;;;5055064;28;20182;-68
2022/10/20 07:20:45;;;;;;;3.13;1.80;;;17.90;63.40;;;;;;5054575;28;20540;-68
2022/10/20 07:23:11;;;;;;;3.50;1.80;;;17.90;63.30;;;;;;5054855;28;20168;-69
2022/10/20 07:25:36;;;;;;;2.97;1.70;;;17.90;63.30;;;;;;5055326;28;20175;-68
2022/10/20 07:28:02;;;;;;;2.08;1.80;;;17.90;63.30;;;;;;5054252;28;20253;-68
2022/10/20 07:30:28;;;;;;;1.73;1.55;;;17.90;63.40;;;;;;5055226;28;20178;-68
2022/10/20 07:32:53;;;;;;;8.27;2.28;;;17.90;63.50;;;;;;5054405;28;20183;-69
2022/10/20 07:35:18;;;;;;;1.85;1.50;;;17.90;63.60;;;;;;5054588;28;20638;-68
2022/10/20 07:37:44;;;;;;;1.88;1.60;;;17.90;63.70;;;;;;5055039;28;20187;-69
2022/10/20 07:40:10;;;;;;;2.72;1.98;;;17.80;64.00;;;;;;5054110;28;20168;-69
2022/10/20 07:42:36;;;;;;;2.97;1.80;;;17.80;64.20;;;;;;5055054;28;20175;-69
2022/10/20 07:45:01;;;;;;;1.60;1.50;;;17.70;64.30;;;;;;5054718;28;20170;-69
2022/10/20 07:47:27;;;;;;;3.92;2.00;;;17.70;64.40;;;;;;5054101;28;20229;-69
2022/10/20 07:49:52;;;;;;;1.50;1.40;;;17.60;64.50;;;;;;5054632;28;20175;-68
2022/10/20 07:52:18;;;;;;;2.05;1.60;;;17.60;64.70;;;;;;5054181;28;20176;-69
2022/10/20 07:54:43;;;;;;;3.20;2.10;;;17.60;64.70;;;;;;5054099;28;20175;-69
2022/10/20 07:57:09;;;;;;;2.00;1.83;;;17.50;64.80;;;;;;5054485;28;20611;-70
2022/10/20 07:59:34;;;;;;;2.70;1.55;;;17.50;64.90;;;;;;5054032;28;20198;-68
2022/10/20 08:02:00;;;;;;;1.98;1.73;;;17.50;65.10;;;;;;5053380;28;20183;-70
2022/10/20 08:04:26;;;;;;;2.83;1.95;;;17.40;65.10;;;;;;5054359;28;20175;-69
2022/10/20 08:06:51;;;;;;;3.13;1.80;;;17.50;65.20;;;;;;5054394;28;20646;-69
2022/10/20 08:09:17;;;;;;;3.63;1.70;;;17.40;65.20;;;;;;5053301;28;20522;-68
2022/10/20 08:11:42;;;;;;;2.75;1.85;;;17.30;65.20;;;;;;5054074;28;20223;-69
2022/10/20 08:14:08;;;;;;;3.60;1.90;;;17.40;65.30;;;;;;5054279;28;20175;-70
2022/10/20 08:16:33;;;;;;;2.60;1.77;;;17.40;65.40;;;;;;5053706;28;20219;-70
2022/10/20 08:18:59;;;;;;;2.10;1.90;;;17.40;65.30;;;;;;5053802;28;20206;-70
2022/10/20 08:21:25;;;;;;;2.58;1.50;;;17.40;65.10;;;;;;5054033;28;20262;-70
2022/10/20 08:23:50;;;;;;;1.50;1.27;;;17.50;65.10;;;;;;5053609;28;20175;-70
2022/10/20 08:26:21;;;;;;;3.78;1.63;;;17.50;65.00;;;;;;5053777;28;20252;-70
2022/10/20 08:28:47;;;;;;;3.25;1.85;;;17.50;64.90;;;;;;5054224;28;20182;-70
2022/10/20 08:31:13;;;;;;;3.50;1.83;;;17.50;64.90;;;;;;5053076;28;20585;-69
2022/10/20 08:33:39;;;;;;;3.50;1.73;;;17.50;64.90;;;;;;5053811;28;20645;-69
2022/10/20 08:36:07;;;;;;;2.22;2.03;;;17.50;64.90;;;;;;5052827;28;20206;-70
2022/10/20 08:38:33;;;;;;;2.33;1.60;;;17.50;64.90;;;;;;5053846;28;20175;-70
2022/10/20 08:40:59;;;;;;;3.13;1.80;;;17.50;64.90;;;;;;5052569;28;20262;-70
2022/10/20 08:43:25;;;;;;;2.20;2.00;;;17.50;64.90;;;;;;5051799;28;21041;-70
2022/10/20 08:45:50;;;;;;;1.77;1.50;;;17.50;64.80;;;;;;5052726;28;20171;-70
2022/10/20 08:48:18;;;;;;;2.00;1.80;;;17.50;64.80;;;;;;5053563;28;20237;-69
2022/10/20 08:50:46;;;;;;;3.78;1.90;;;17.50;64.80;;;;;;5051786;28;20258;-69
2022/10/20 08:53:11;;;;;;;1.83;1.52;;;17.50;64.80;;;;;;5052348;28;20229;-70
2022/10/20 08:55:37;;;;;;;2.30;2.10;;;17.50;64.80;;;;;;5053506;28;20558;-70
2022/10/20 08:58:10;;;;;;;2.92;1.88;;;17.50;64.70;;;;;;5051371;28;20591;-70
2022/10/20 09:00:36;;;;;;;2.00;1.80;;;17.50;64.70;;;;;;5052127;28;20249;-70
2022/10/20 09:03:12;;;;;;;2.03;1.90;;;17.50;64.90;;;;;;5053170;28;20258;-70
2022/10/20 09:05:39;;;;;;;3.08;1.90;;;17.50;64.80;;;;;;5051479;28;20520;-70
2022/10/20 09:08:05;;;;;;;1.90;1.60;;;17.50;64.80;;;;;;5051974;28;20200;-70
2022/10/20 09:10:36;;;;;;;2.03;1.60;;;17.50;64.80;;;;;;5053217;28;20209;-70
2022/10/20 09:13:09;;;;;;;2.85;2.10;;;17.60;64.80;;;;;;5050750;28;20222;-70
2022/10/20 09:15:35;;;;;;;2.40;1.77;;;17.60;64.70;;;;;;5051758;28;20233;-70
2022/10/20 09:18:08;;;;;;;2.10;1.92;;;17.60;64.50;;;;;;5051472;28;20179;-70
2022/10/20 09:20:51;;;;;;;2.00;1.90;;;17.70;64.40;;;;;;5051352;28;20202;-70
2022/10/20 09:23:17;;;;;;;2.35;1.65;;;17.70;64.30;;;;;;5051755;28;20171;-70
2022/10/20 09:25:43;;;;;;;1.90;1.80;;;17.70;64.40;;;;;;5051095;28;20186;-70
2022/10/20 09:28:21;;;;;;;2.15;1.77;;;17.70;64.50;;;;;;5051631;28;20584;-70
2022/10/20 09:30:46;;;;;;;2.42;1.90;;;17.60;64.40;;;;;;5051974;28;20195;-69
2022/10/20 09:33:29;;;;;;;2.47;1.63;;;17.60;64.50;;;;;;5051961;28;20199;-70
2022/10/20 09:36:05;;;;;;;2.30;2.10;;;17.60;64.60;;;;;;5052929;28;20214;-70
2022/10/20 09:38:32;;;;;;;2.25;1.75;;;17.60;64.70;;;;;;5051633;28;20236;-71
2022/10/20 09:41:12;;;;;;;2.17;1.75;;;17.60;64.80;;;;;;5050832;28;20175;-71
2022/10/20 09:43:39;;;;;;;3.67;2.15;;;17.60;64.90;;;;;;5051773;28;20182;-70
2022/10/20 09:46:06;;;;;;;2.40;2.10;;;17.50;64.90;;;;;;5051326;28;20179;-70
2022/10/20 09:48:34;;;;;;;2.40;2.00;;;17.50;64.90;;;;;;5050738;28;20175;-70
2022/10/20 09:51:03;;;;;;;2.10;1.90;;;17.50;64.90;;;;;;5051075;28;20183;-71
2022/10/20 09:53:33;;;;;;;3.25;1.90;;;17.40;65.00;;;;;;5052447;28;20203;-70
2022/10/20 09:55:58;;;;;;;2.38;2.17;;;17.40;64.90;;;;;;5051006;28;20716;-70
2022/10/20 09:58:27;;;;;;;1.98;1.80;;;17.50;65.00;;;;;;5051591;28;20179;-70
2022/10/20 10:00:58;;;;;;;1.83;1.73;;;17.40;65.00;;;;;;5050729;28;20634;-70
2022/10/20 10:03:24;;;;;;;3.28;2.10;;;17.40;65.00;;;;;;5051328;28;20187;-70
2022/10/20 10:05:57;;;;;;;1.83;1.73;;;17.40;65.10;;;;;;5052680;28;20648;-70
2022/10/20 10:08:27;;;;;;;1.73;1.63;;;17.40;65.10;;;;;;5051839;28;20179;-69
2022/10/20 10:11:16;;;;;;;2.42;1.83;;;17.30;65.00;;;;;;5052625;28;20183;-69
2022/10/20 10:13:47;;;;;;;1.80;1.70;;;17.40;65.10;;;;;;5051147;28;20227;-70
2022/10/20 10:16:16;;;;;;;2.83;2.20;;;17.40;65.20;;;;;;5050075;28;20211;-70
2022/10/20 10:18:53;;;;;;;1.83;1.73;;;17.40;65.20;;;;;;5051332;28;20171;-70
2022/10/20 10:21:21;;;;;;;2.30;1.77;;;17.30;65.20;;;;;;5052304;28;20175;-70
2022/10/20 10:23:51;;;;;;;1.77;1.63;;;17.40;65.20;;;;;;5054288;28;20220;-70
2022/10/20 10:26:45;;;;;;;1.75;1.60;;;17.30;65.20;;;;;;5055967;28;20563;-70
2022/10/20 10:29:19;;;;;;;3.00;1.75;;;17.30;65.30;;;;;;5055377;28;20245;-70
2022/10/20 10:31:49;;;;;;;2.28;2.10;;;17.30;65.40;;;;;;5055201;28;20232;-69
2022/10/20 10:34:14;;;;;;;3.35;1.90;;;17.40;65.40;;;;;;5055932;28;20193;-69
2022/10/20 10:36:40;;;;;;;2.35;1.85;;;17.50;66.40;;;;;;5055291;28;20203;-69
2022/10/20 10:39:09;;;;;;;2.25;1.77;;;17.30;65.40;;;;;;5054567;28;20553;-71
2022/10/20 10:41:46;;;;;;;2.60;1.58;;;17.30;65.40;;;;;;5054718;28;20190;-70
2022/10/20 10:44:14;;;;;;;2.65;1.80;;;17.30;65.40;;;;;;5054085;28;20272;-70
2022/10/20 10:46:53;;;;;;;3.05;2.15;;;17.20;65.40;;;;;;5054628;28;20677;-70
2022/10/20 10:49:34;;;;;;;3.63;2.00;;;17.30;65.50;;;;;;5054524;28;20186;-70
2022/10/20 10:52:18;;;;;;;2.22;2.03;;;17.20;65.50;;;;;;5053910;28;20206;-70
2022/10/20 10:54:56;;;;;;;2.17;1.83;;;17.20;65.50;;;;;;5055843;28;20182;-70
2022/10/20 10:57:31;;;;;;;2.60;1.80;;;17.20;65.40;;;;;;5054830;28;20218;-70
2022/10/20 11:00:01;;;;;;;2.20;1.98;;;17.20;65.40;;;;;;5054448;28;20256;-70
2022/10/20 11:02:54;;;;;;;3.42;1.83;;;17.20;65.40;;;;;;5054715;28;20229;-70
2022/10/20 11:05:45;;;;;;;1.92;1.83;;;17.30;65.50;;;;;;5053115;28;20186;-68
2022/10/20 11:08:38;;;;;;;2.83;1.80;;;17.20;65.40;;;;;;5054475;28;20179;-69
2022/10/20 11:11:31;;;;;;;2.45;2.00;;;17.20;65.50;;;;;;5055896;28;20202;-69
2022/10/20 11:14:32;;;;;;;2.83;1.83;;;17.20;65.50;;;;;;5055263;28;20599;-70
2022/10/20 11:17:07;;;;;;;1.77;1.60;;;17.20;65.50;;;;;;5066074;28;20291;-70
2022/10/20 11:19:57;;;;;;;2.42;2.22;;;17.20;65.50;;;;;;5060158;28;20178;-70
2022/10/20 11:22:50;;;;;;;2.88;2.00;;;17.20;65.50;;;;;;5054928;28;20171;-71
2022/10/20 11:25:24;;;;;;;2.10;1.92;;;17.20;65.60;;;;;;5053678;28;20192;-70
2022/10/20 11:27:49;;;;;;;2.00;1.90;;;17.20;65.60;;;;;;5065823;28;20265;-71
2022/10/20 11:30:20;;;;;;;2.50;1.92;;;17.20;65.60;;;;;;5073698;28;20245;-69
2022/10/20 11:33:03;;;;;;;2.17;1.90;;;17.10;65.60;;;;;;5074262;28;20225;-69
2022/10/20 11:35:37;;;;;;;2.90;2.00;;;17.20;65.60;;;;;;5057208;28;20174;-69
2022/10/20 11:38:05;;;;;;;2.17;1.70;;;17.20;65.70;;;;;;5073578;28;20178;-69
2022/10/20 11:40:34;;;;;;;3.25;2.35;;;17.20;65.90;;;;;;5074229;28;20228;-69
2022/10/20 11:43:20;;;;;;;2.40;2.10;;;17.20;65.80;;;;;;5057072;28;20179;-69
2022/10/20 11:45:54;;;;;;;5.88;2.03;;;17.20;65.80;;;;;;5055567;28;20650;-69
2022/10/20 11:48:30;;;;;;;2.40;2.15;;;17.10;65.90;;;;;;5036631;28;20285;-71
2022/10/20 11:51:09;;;;;;;7.45;2.28;;;17.20;65.80;;;;;;5053690;28;20159;-71
2022/10/20 11:53:53;;;;;;;3.83;2.35;;;17.20;65.80;;;;;;5053913;28;20587;-70
2022/10/20 11:56:43;;;;;;;3.53;2.03;;;17.20;65.80;;;;;;5054273;28;20692;-71
2022/10/20 11:59:28;;;;;;;3.28;2.00;;;17.20;65.80;;;;;;5053021;28;20254;-70
2022/10/20 12:01:53;;;;;;;2.45;2.03;;;17.20;65.80;;;;;;5052693;28;20638;-71
2022/10/20 12:04:57;;;;;;;3.00;2.30;;;17.20;65.80;;;;;;5053991;28;20179;-69
2022/10/20 12:07:47;;;;;;;2.90;1.90;;;17.30;65.90;;;;;;5052397;28;20935;-70
2022/10/20 12:10:24;;;;;;;2.38;2.17;;;17.30;65.90;;;;;;5054126;28;20191;-69
2022/10/20 12:13:06;;;;;;;1.92;1.75;;;17.30;65.90;;;;;;5052944;28;20307;-70
2022/10/20 12:15:31;;;;;;;3.08;2.20;;;17.30;65.80;;;;;;5037829;28;20183;-70
2022/10/20 12:18:04;;;;;;;2.78;1.67;;;17.30;65.80;;;;;;5038159;28;20167;-69
2022/10/20 12:20:29;;;;;;;2.17;2.00;;;17.30;65.80;;;;;;5073082;28;20186;-72
2022/10/20 12:23:00;;;;;;;2.50;2.30;;;17.30;65.80;;;;;;5073740;28;20205;-71
2022/10/20 12:25:26;;;;;;;2.60;1.60;;;17.30;66.50;;;;;;5057219;28;20202;-71
2022/10/20 12:28:19;;;;;;;2.28;1.80;;;17.30;65.80;;;;;;5074126;28;20603;-71
2022/10/20 12:31:10;;;;;;;2.80;1.85;;;17.30;65.80;;;;;;5073993;28;20194;-71
2022/10/20 12:33:58;;;;;;;2.13;1.98;;;17.30;65.80;;;;;;5072763;28;20260;-71
2022/10/20 12:36:37;;;;;;;2.17;1.92;;;17.30;65.80;;;;;;5073358;28;20217;-71
2022/10/20 12:39:11;;;;;;;4.22;2.35;;;17.20;65.70;;;;;;5055851;28;20181;-72
2022/10/20 12:41:59;;;;;;;2.20;2.00;;;17.20;65.80;;;;;;5073757;28;20174;-72
2022/10/20 12:44:24;;;;;;;1.92;1.73;;;17.20;65.70;;;;;;5072076;28;20174;-71
2022/10/20 12:47:03;;;;;;;1.95;1.80;;;17.20;65.70;;;;;;5055271;28;20175;-71
2022/10/20 12:49:43;;;;;;;2.45;2.20;;;17.20;65.80;;;;;;5073129;28;20216;-71
2022/10/20 12:52:16;;;;;;;2.17;1.83;;;17.20;65.70;;;;;;5072023;28;20201;-71
2022/10/20 12:54:42;;;;;;;3.15;2.20;;;17.20;65.80;;;;;;5056151;28;20170;-71
2022/10/20 12:57:43;;;;;;;2.38;1.70;;;17.30;65.90;;;;;;5054581;28;20210;-73
2022/10/20 13:00:18;;;;;;;2.13;2.00;;;17.30;65.80;;;;;;5071957;28;20201;-72